createdAt,value
2018-11-27T00:02:06.956Z,5.70
2018-11-27T00:04:35.392Z,5.60
2018-11-27T00:07:03.778Z,5.60
2018-11-27T00:09:32.162Z,5.60
2018-11-27T00:12:00.560Z,5.50
2018-11-27T00:14:29.007Z,5.50
2018-11-27T00:16:57.399Z,5.50
2018-11-27T00:19:25.769Z,5.50
2018-11-27T00:21:54.185Z,5.40
2018-11-27T00:24:22.587Z,5.50
2018-11-27T00:26:51.085Z,5.40
2018-11-27T00:29:19.535Z,5.50
2018-11-27T00:31:47.938Z,5.40
2018-11-27T00:34:16.479Z,5.40
2018-11-27T00:36:44.905Z,5.40
2018-11-27T00:39:13.317Z,5.30
2018-11-27T00:56:52.460Z,5.20
2018-11-27T00:59:20.887Z,5.20
2018-11-27T01:01:51.348Z,5.10
2018-11-27T01:04:19.736Z,5.10
2018-11-27T01:06:48.136Z,5.10
2018-11-27T01:09:16.530Z,5.20
2018-11-27T01:11:45.536Z,5.20
2018-11-27T01:14:13.921Z,5.30
2018-11-27T01:16:42.310Z,5.30
2018-11-27T02:42:40.216Z,5.30
2018-11-27T02:45:11.822Z,4.90
2018-11-27T02:47:40.938Z,4.90
2018-11-27T02:50:11.929Z,4.90
2018-11-27T02:52:40.345Z,4.90
2018-11-27T02:55:12.196Z,4.90
2018-11-27T02:57:40.622Z,4.80
2018-11-27T03:00:13.023Z,4.80
2018-11-27T03:02:41.542Z,4.80
2018-11-27T03:05:19.763Z,4.80
2018-11-27T03:07:48.157Z,4.90
2018-11-27T03:10:16.652Z,4.90
2018-11-27T03:12:45.057Z,4.80
2018-11-27T03:15:14.570Z,4.80
2018-11-27T03:17:43.016Z,4.80
2018-11-27T03:20:16.756Z,4.80
2018-11-27T03:22:45.198Z,4.80
2018-11-27T03:25:14.973Z,4.80
2018-11-27T03:27:43.983Z,4.80
2018-11-27T03:30:14.384Z,4.90
2018-11-27T03:32:43.120Z,4.80
2018-11-27T03:35:14.365Z,4.80
2018-11-27T03:37:42.908Z,4.80
2018-11-27T03:40:13.566Z,4.80
2018-11-27T03:43:04.912Z,4.80
2018-11-27T03:45:33.397Z,4.80
2018-11-27T03:48:01.794Z,4.80
2018-11-27T03:50:31.237Z,4.70
2018-11-27T03:52:59.634Z,4.70
2018-11-27T03:55:29.712Z,4.80
2018-11-27T03:57:58.125Z,4.70
2018-11-27T04:00:28.055Z,4.70
2018-11-27T04:03:11.584Z,4.80
2018-11-27T04:05:40.360Z,4.80
2018-11-27T04:08:10.374Z,4.80
2018-11-27T04:10:41.519Z,4.90
2018-11-27T04:13:09.945Z,4.90
2018-11-27T04:15:38.360Z,5.00
2018-11-27T04:18:06.889Z,5.00
2018-11-27T04:20:35.288Z,5.10
2018-11-27T04:23:03.726Z,5.10
2018-11-27T04:25:32.197Z,5.10
2018-11-27T04:28:01.205Z,5.10
2018-11-27T04:30:29.607Z,5.00
2018-11-27T04:32:58.007Z,5.00
2018-11-27T04:35:26.377Z,5.00
2018-11-27T04:37:55.096Z,4.90
2018-11-27T04:40:23.495Z,5.00
2018-11-27T04:42:52.033Z,4.90
2018-11-27T04:45:22.143Z,4.90
2018-11-27T04:47:50.541Z,4.80
2018-11-27T04:50:19.252Z,4.80
2018-11-27T04:52:47.735Z,4.80
2018-11-27T04:55:17.234Z,4.70
2018-11-27T04:57:46.672Z,4.70
2018-11-27T05:00:24.799Z,4.60
2018-11-27T05:02:53.185Z,4.60
2018-11-27T05:05:21.645Z,4.50
2018-11-27T05:07:50.080Z,4.50
2018-11-27T05:10:20.148Z,4.50
2018-11-27T05:12:48.603Z,4.50
2018-11-27T05:15:20.097Z,4.50
2018-11-27T05:17:49.657Z,4.50
2018-11-27T05:20:18.005Z,4.50
2018-11-27T05:22:46.527Z,4.50
2018-11-27T06:14:17.408Z,4.20
2018-11-27T06:16:46.196Z,4.20
2018-11-27T06:19:15.879Z,4.10
2018-11-27T06:21:47.885Z,4.00
2018-11-27T06:24:20.901Z,4.00
2018-11-27T06:26:49.490Z,4.00
2018-11-27T06:29:18.730Z,4.10
2018-11-27T06:31:46.837Z,4.10
2018-11-27T06:34:15.303Z,4.20
2018-11-27T06:36:43.789Z,4.20
2018-11-27T06:44:37.124Z,4.20
2018-11-27T06:47:05.548Z,4.20
2018-11-27T06:49:33.976Z,4.20
2018-11-27T06:52:02.712Z,4.20
2018-11-27T06:54:30.718Z,4.20
2018-11-27T06:56:59.094Z,4.20
2018-11-27T06:59:27.508Z,4.20
2018-11-27T07:01:55.973Z,4.20
2018-11-27T07:04:24.998Z,4.20
2018-11-27T07:06:53.408Z,4.20
2018-11-27T07:09:21.798Z,4.30
2018-11-27T07:11:52.248Z,4.30
2018-11-27T07:14:24.610Z,4.40
2018-11-27T07:16:54.581Z,4.40
2018-11-27T07:19:24.283Z,4.40
2018-11-27T07:21:53.129Z,4.40
2018-11-27T07:24:21.530Z,4.40
2018-11-27T08:09:56.442Z,4.60
2018-11-27T09:09:42.213Z,5.40
2018-11-27T09:12:10.675Z,5.30
2018-11-27T09:14:38.981Z,5.30
2018-11-27T09:17:07.598Z,5.30
2018-11-27T09:19:36.646Z,5.30
2018-11-27T09:22:12.623Z,5.30
2018-11-27T09:24:35.953Z,5.30
2018-11-27T09:27:04.804Z,5.40
2018-11-27T09:29:34.983Z,5.40
2018-11-27T09:32:04.061Z,5.50
2018-11-27T09:34:54.078Z,5.40
2018-11-27T09:37:53.161Z,5.60
2018-11-27T09:40:22.609Z,5.70
2018-11-27T09:42:51.175Z,5.60
2018-11-27T09:45:20.893Z,5.70
2018-11-27T09:47:50.968Z,5.80
2018-11-27T09:50:19.464Z,5.70
2018-11-27T10:30:52.729Z,6.10
2018-11-27T11:40:17.588Z,6.40
2018-11-27T11:42:46.346Z,6.50
2018-11-27T11:45:14.742Z,6.50
2018-11-27T11:47:43.200Z,6.40
2018-11-27T11:50:14.542Z,6.40
2018-11-27T11:52:45.451Z,6.40
2018-11-27T11:55:15.000Z,6.40
2018-11-27T11:57:43.738Z,6.40
2018-11-27T12:00:33.579Z,6.40
2018-11-27T12:03:02.028Z,6.40
2018-11-27T12:05:30.940Z,6.30
2018-11-27T12:07:59.368Z,6.40
2018-11-27T12:10:28.854Z,6.40
2018-11-27T12:12:57.611Z,6.30
2018-11-27T12:15:26.399Z,6.30
2018-11-27T12:17:54.817Z,6.30
2018-11-27T12:23:26.921Z,6.20
2018-11-27T12:25:55.344Z,6.30
2018-11-27T12:28:23.763Z,6.30
2018-11-27T12:30:54.895Z,6.20
2018-11-27T12:33:23.299Z,6.20
2018-11-27T14:38:52.756Z,5.70
2018-11-27T14:41:21.206Z,5.60
2018-11-27T14:43:49.664Z,5.60
2018-11-27T14:46:19.895Z,5.40
2018-11-27T14:48:49.278Z,5.40
2018-11-27T14:51:18.739Z,5.40
2018-11-27T14:53:47.333Z,5.40
2018-11-27T14:56:15.841Z,5.40
2018-11-27T14:58:44.296Z,5.40
2018-11-27T15:01:12.766Z,5.50
2018-11-27T15:03:51.541Z,5.50
2018-11-27T15:06:20.158Z,5.60
2018-11-27T15:08:48.582Z,5.60
2018-11-27T15:11:17.036Z,5.50
2018-11-27T15:13:45.563Z,5.60
2018-11-27T15:16:14.042Z,5.60
2018-11-27T15:18:42.485Z,5.60
2018-11-27T15:21:11.756Z,5.50
2018-11-27T15:23:40.586Z,5.50
2018-11-27T15:26:09.075Z,5.40
2018-11-27T15:28:37.441Z,5.30
2018-11-27T15:31:06.141Z,5.20
2018-11-27T15:33:34.579Z,5.20
2018-11-27T15:36:03.281Z,5.20
2018-11-27T15:38:31.784Z,5.10
2018-11-27T15:41:00.213Z,5.10
2018-11-27T15:43:28.636Z,5.00
2018-11-27T15:45:57.258Z,5.00
2018-11-27T15:48:25.800Z,4.90
2018-11-27T15:50:54.214Z,4.90
2018-11-27T15:53:22.639Z,4.90
2018-11-27T15:55:51.037Z,4.80
2018-11-27T15:58:20.798Z,4.70
2018-11-27T16:00:49.184Z,4.70
2018-11-27T16:03:18.381Z,4.70
2018-11-27T16:05:47.262Z,4.60
2018-11-27T16:08:15.780Z,4.60
2018-11-27T16:10:44.226Z,4.50
2018-11-27T16:13:12.636Z,4.50
2018-11-27T16:15:42.486Z,4.50
2018-11-27T16:18:10.970Z,4.40
2018-11-27T16:20:39.376Z,4.40
2018-11-27T16:23:08.126Z,4.40
2018-11-27T16:25:36.642Z,4.30
2018-11-27T16:28:05.840Z,4.30
2018-11-27T16:30:34.288Z,4.30
2018-11-27T16:36:12.390Z,4.30
2018-11-27T16:38:40.824Z,4.20
2018-11-27T16:41:09.356Z,4.10
2018-11-27T16:43:49.678Z,4.10
2018-11-27T16:46:18.529Z,4.10
2018-11-27T16:48:47.382Z,4.00
2018-11-27T16:51:15.892Z,4.00
2018-11-27T16:53:44.317Z,4.00
2018-11-27T16:56:12.887Z,4.10
2018-11-27T16:58:42.985Z,4.00
2018-11-27T17:01:11.408Z,3.90
2018-11-27T17:03:41.278Z,3.90
2018-11-27T17:06:11.365Z,4.10
2018-11-27T17:08:42.694Z,4.10
2018-11-27T17:11:11.216Z,4.10
2018-11-27T17:13:40.474Z,4.20
2018-11-27T17:16:13.614Z,4.10
2018-11-27T17:18:42.922Z,4.10
2018-11-27T17:21:11.966Z,4.00
2018-11-27T17:23:40.551Z,4.10
2018-11-27T17:26:09.038Z,4.00
2018-11-27T17:28:37.801Z,4.00
2018-11-27T17:31:11.183Z,4.00
2018-11-27T17:33:44.108Z,4.00
2018-11-27T17:36:12.749Z,4.00
2018-11-27T17:38:41.434Z,3.90
2018-11-27T17:41:10.459Z,3.90
2018-11-27T17:43:39.607Z,3.90
2018-11-27T17:46:08.280Z,3.90
2018-11-27T17:48:36.701Z,3.80
2018-11-27T17:51:06.048Z,3.80
2018-11-27T17:53:35.138Z,3.80
2018-11-27T17:56:05.584Z,3.80
2018-11-27T17:58:35.231Z,3.90
2018-11-27T18:01:08.365Z,3.90
2018-11-27T18:03:38.260Z,3.80
2018-11-27T18:06:07.326Z,3.80
2018-11-27T18:08:40.574Z,3.90
2018-11-27T18:11:09.101Z,3.90
2018-11-27T18:13:37.530Z,3.90
2018-11-27T18:16:06.210Z,3.90
2018-11-27T18:18:40.965Z,3.90
2018-11-27T18:21:10.405Z,3.90
2018-11-27T18:23:38.779Z,4.00
2018-11-27T18:26:07.163Z,3.90
2018-11-27T18:28:35.631Z,4.00
2018-11-27T18:31:04.429Z,3.90
2018-11-27T18:33:32.917Z,3.90
2018-11-27T18:36:01.366Z,3.80
2018-11-27T18:38:30.125Z,3.80
2018-11-27T18:40:58.685Z,3.70
2018-11-27T18:43:27.413Z,3.60
2018-11-27T18:45:55.939Z,3.60
2018-11-27T18:48:24.396Z,3.60
2018-11-27T18:50:52.831Z,3.60
2018-11-27T18:53:21.499Z,3.60
2018-11-27T18:55:50.019Z,3.60
2018-11-27T18:58:18.808Z,3.60
2018-11-27T19:00:47.509Z,3.50
2018-11-27T19:03:15.918Z,3.40
2018-11-27T19:05:44.400Z,3.50
2018-11-27T19:08:13.519Z,3.50
2018-11-27T19:10:41.920Z,3.50
2018-11-27T19:13:10.367Z,3.40
2018-11-27T19:15:45.502Z,3.40
2018-11-27T19:18:20.051Z,3.40
2018-11-27T19:20:48.629Z,3.40
2018-11-27T19:23:18.148Z,3.40
2018-11-27T19:25:46.653Z,3.40
2018-11-27T19:28:15.188Z,3.40
2018-11-27T19:30:43.743Z,3.40
2018-11-27T19:33:12.614Z,3.40
2018-11-27T19:35:42.770Z,3.30
2018-11-27T19:38:22.804Z,3.30
2018-11-27T19:40:54.551Z,3.30
2018-11-27T19:43:23.459Z,3.40
2018-11-27T19:45:51.821Z,3.40
2018-11-27T19:48:20.388Z,3.40
2018-11-27T19:50:48.871Z,3.40
2018-11-27T19:53:17.359Z,3.30
2018-11-27T19:55:45.891Z,3.30
2018-11-27T19:58:15.397Z,3.20
2018-11-27T20:00:44.443Z,3.20
2018-11-27T20:03:13.173Z,3.20
2018-11-27T20:05:41.765Z,3.20
2018-11-27T20:08:17.282Z,3.20
2018-11-27T20:10:45.749Z,3.20
2018-11-27T20:13:14.639Z,3.20
2018-11-27T20:15:44.150Z,3.20
2018-11-27T20:18:12.912Z,3.10
2018-11-27T20:20:42.945Z,3.10
2018-11-27T20:23:11.420Z,3.00
2018-11-27T20:25:39.835Z,3.00
2018-11-27T20:28:09.375Z,2.90
2018-11-27T20:30:39.433Z,2.90
2018-11-27T20:33:10.257Z,2.90
2018-11-27T20:35:39.078Z,2.90
2018-11-27T20:38:08.937Z,2.90
2018-11-27T20:40:37.867Z,2.90
2018-11-27T20:43:06.682Z,2.90
2018-11-27T20:45:35.428Z,2.80
2018-11-27T20:48:17.005Z,2.70
2018-11-27T20:50:50.675Z,2.70
2018-11-27T20:53:22.350Z,2.70
2018-11-27T20:55:50.788Z,2.60
2018-11-27T20:58:19.508Z,2.70
2018-11-27T21:01:04.152Z,2.60
2018-11-27T21:03:32.584Z,2.60
2018-11-27T21:06:01.568Z,2.60
2018-11-27T21:08:30.270Z,2.50
2018-11-27T21:10:58.882Z,2.50
2018-11-27T21:13:27.742Z,2.50
2018-11-27T21:15:56.139Z,2.50
2018-11-27T21:18:24.671Z,2.50
2018-11-27T21:20:58.776Z,2.50
2018-11-27T21:23:27.240Z,2.50
2018-11-27T21:25:59.870Z,2.50
2018-11-27T21:28:28.286Z,2.50
2018-11-27T21:30:56.920Z,2.50
2018-11-27T21:33:28.648Z,2.50
2018-11-27T21:35:58.173Z,2.50
2018-11-27T21:38:26.663Z,2.50
2018-11-27T21:40:55.139Z,2.50
2018-11-27T21:43:23.954Z,2.40
2018-11-27T21:45:52.462Z,2.40
2018-11-27T21:48:20.989Z,2.50
2018-11-27T21:50:49.578Z,2.40
2018-11-27T21:53:30.738Z,2.40
2018-11-27T21:55:59.999Z,2.40
2018-11-27T21:58:28.529Z,2.40
2018-11-27T22:03:58.785Z,2.30
2018-11-27T22:06:27.239Z,2.30
2018-11-27T22:08:56.081Z,2.30
2018-11-27T22:11:24.494Z,2.20
2018-11-27T22:13:52.963Z,2.20
2018-11-27T22:16:24.437Z,2.20
2018-11-27T22:18:55.581Z,2.10
2018-11-27T22:21:25.780Z,2.10
2018-11-27T22:24:01.606Z,2.10
2018-11-27T22:26:33.720Z,2.10
2018-11-27T22:29:04.392Z,2.10
